QFA110 YBCS-YBSU
Flight info
| Callsign | QFA110 |
|---|---|
| Flight time | N/A |
| Altitude | 39000 |
| Route | AKROM Y177 RUROX/N0336F190 W727 SUSGI W534 SEBVA |
| Aircraft | A20N/M-SDE2E3FGHIRWXY/LB1 |
Departure
| Time | 2026-04-27 08:28 |
|---|---|
| Airport | Cairns International Airport (YBCS) |
Arrival
| Time | N/A |
|---|---|
| Airport | Sunshine Coast Airport (YBSU) |
| Time | Latitude | Longitude | Altitude | Speed | Heading |
|---|---|---|---|---|---|
| 2026-04-27 08:03 | -16.87511 | 145.75169 | 13 ft | 0 kts | 65° |
| 2026-04-27 08:17 | -16.87514 | 145.75163 | 13 ft | 1 kts | 61° |
| 2026-04-27 08:17 | -16.87518 | 145.75155 | 13 ft | 1 kts | 45° |
| 2026-04-27 08:17 | -16.87524 | 145.75149 | 12 ft | 1 kts | 28° |
| 2026-04-27 08:18 | -16.87532 | 145.75145 | 13 ft | 1 kts | 12° |
| 2026-04-27 08:18 | -16.87536 | 145.75144 | 13 ft | 1 kts | 4° |
| 2026-04-27 08:18 | -16.87540 | 145.75144 | 13 ft | 0 kts | 355° |
| 2026-04-27 08:19 | -16.87534 | 145.75142 | 13 ft | 4 kts | 345° |
| 2026-04-27 08:20 | -16.87464 | 145.75107 | 13 ft | 19 kts | 339° |
| 2026-04-27 08:20 | -16.87362 | 145.75069 | -4 ft | 5 kts | 345° |
| 2026-04-27 08:20 | -16.87351 | 145.75073 | -4 ft | 0 kts | 29° |
| 2026-04-27 08:20 | -16.87344 | 145.75073 | -4 ft | 2 kts | 2° |
| 2026-04-27 08:21 | -16.87331 | 145.75045 | -5 ft | 10 kts | 283° |
| 2026-04-27 08:21 | -16.87302 | 145.74917 | -6 ft | 23 kts | 291° |
| 2026-04-27 08:21 | -16.87184 | 145.74827 | -8 ft | 20 kts | 336° |
| 2026-04-27 08:21 | -16.87092 | 145.74783 | -9 ft | 0 kts | 334° |
| 2026-04-27 08:23 | -16.87085 | 145.74779 | -9 ft | 6 kts | 335° |
| 2026-04-27 08:23 | -16.87080 | 145.74776 | -10 ft | 0 kts | 329° |
| 2026-04-27 08:26 | -16.87059 | 145.74753 | -6 ft | 12 kts | 304° |
| 2026-04-27 08:26 | -16.87038 | 145.74713 | -9 ft | 0 kts | 294° |
| 2026-04-27 08:27 | -16.87038 | 145.74711 | -9 ft | 2 kts | 286° |
| 2026-04-27 08:27 | -16.87054 | 145.74673 | -9 ft | 1 kts | 236° |
| 2026-04-27 08:27 | -16.87064 | 145.74657 | -8 ft | 9 kts | 235° |
| 2026-04-27 08:28 | -16.87197 | 145.74640 | -9 ft | 42 kts | 150° |
| 2026-04-27 08:28 | -16.87722 | 145.74874 | 15 ft | 120 kts | 157° |
| 2026-04-27 08:28 | -16.88660 | 145.75303 | 225 ft | 162 kts | 156° |
| 2026-04-27 08:28 | -16.89734 | 145.75841 | 877 ft | 184 kts | 147° |
| 2026-04-27 08:29 | -16.90589 | 145.76871 | 1743 ft | 194 kts | 114° |
| 2026-04-27 08:29 | -16.90752 | 145.78279 | 2670 ft | 208 kts | 76° |
| 2026-04-27 08:29 | -16.89854 | 145.79524 | 3475 ft | 227 kts | 37° |
| 2026-04-27 08:29 | -16.88515 | 145.80315 | 4680 ft | 214 kts | 37° |
| 2026-04-27 08:30 | -16.87216 | 145.81169 | 5453 ft | 227 kts | 37° |
| 2026-04-27 08:30 | -16.85888 | 145.82070 | 6199 ft | 233 kts | 40° |
| 2026-04-27 08:30 | -16.84793 | 145.83253 | 7125 ft | 219 kts | 69° |
| 2026-04-27 08:30 | -16.84433 | 145.84737 | 7855 ft | 214 kts | 92° |
| 2026-04-27 08:31 | -16.84378 | 145.86355 | 8329 ft | 235 kts | 92° |
| 2026-04-27 08:31 | -16.84315 | 145.88138 | 8695 ft | 259 kts | 90° |
| 2026-04-27 08:31 | -16.84404 | 145.90080 | 9103 ft | 275 kts | 106° |
| 2026-04-27 08:31 | -16.85280 | 145.91856 | 9808 ft | 277 kts | 133° |
| 2026-04-27 08:32 | -16.86817 | 145.93085 | 10409 ft | 288 kts | 150° |
| 2026-04-27 08:32 | -16.88617 | 145.94155 | 10619 ft | 310 kts | 152° |
| 2026-04-27 08:32 | -16.90593 | 145.95277 | 10831 ft | 332 kts | 152° |
| 2026-04-27 08:32 | -16.92668 | 145.96454 | 11274 ft | 343 kts | 153° |
| 2026-04-27 08:33 | -16.94771 | 145.97663 | 11940 ft | 348 kts | 153° |
| 2026-04-27 08:33 | -16.96918 | 145.98905 | 12507 ft | 355 kts | 154° |
| 2026-04-27 08:33 | -16.99097 | 146.00170 | 13124 ft | 361 kts | 154° |
| 2026-04-27 08:33 | -17.01304 | 146.01453 | 13742 ft | 366 kts | 154° |
| 2026-04-27 08:34 | -17.03538 | 146.02753 | 14294 ft | 370 kts | 154° |
| 2026-04-27 08:34 | -17.05764 | 146.04048 | 14875 ft | 372 kts | 154° |
| 2026-04-27 08:34 | -17.08039 | 146.05372 | 15417 ft | 377 kts | 154° |
| 2026-04-27 08:34 | -17.10343 | 146.06712 | 15968 ft | 380 kts | 154° |
| 2026-04-27 08:35 | -17.12663 | 146.08061 | 16496 ft | 384 kts | 154° |
| 2026-04-27 08:35 | -17.15009 | 146.09426 | 17053 ft | 387 kts | 154° |
| 2026-04-27 08:35 | -17.17374 | 146.10803 | 17578 ft | 391 kts | 154° |
| 2026-04-27 08:35 | -17.19765 | 146.12195 | 18094 ft | 395 kts | 154° |
| 2026-04-27 08:36 | -17.22173 | 146.13598 | 18546 ft | 398 kts | 154° |
| 2026-04-27 08:36 | -17.24597 | 146.15010 | 19078 ft | 399 kts | 154° |
| 2026-04-27 08:36 | -17.27030 | 146.16429 | 19537 ft | 402 kts | 154° |
| 2026-04-27 08:36 | -17.29484 | 146.17859 | 19984 ft | 405 kts | 154° |
| 2026-04-27 08:37 | -17.31951 | 146.19297 | 20453 ft | 408 kts | 154° |
| 2026-04-27 08:37 | -17.34405 | 146.20728 | 20897 ft | 411 kts | 154° |
| 2026-04-27 08:37 | -17.36911 | 146.22190 | 21354 ft | 414 kts | 154° |
| 2026-04-27 08:37 | -17.39430 | 146.23661 | 21811 ft | 416 kts | 154° |
| 2026-04-27 08:38 | -17.41968 | 146.25143 | 22264 ft | 419 kts | 154° |
| 2026-04-27 08:38 | -17.44529 | 146.26638 | 22716 ft | 422 kts | 153° |
| 2026-04-27 08:38 | -17.47103 | 146.28142 | 23161 ft | 425 kts | 153° |
| 2026-04-27 08:38 | -17.49695 | 146.29657 | 23592 ft | 428 kts | 153° |
| 2026-04-27 08:39 | -17.52305 | 146.31183 | 23979 ft | 431 kts | 153° |
| 2026-04-27 08:39 | -17.54929 | 146.32718 | 24334 ft | 434 kts | 153° |
| 2026-04-27 08:39 | -17.57573 | 146.34266 | 24741 ft | 435 kts | 154° |
| 2026-04-27 08:39 | -17.60224 | 146.35817 | 25124 ft | 438 kts | 154° |
| 2026-04-27 08:40 | -17.62854 | 146.37356 | 25486 ft | 440 kts | 154° |
| 2026-04-27 08:40 | -17.65530 | 146.38923 | 25845 ft | 442 kts | 154° |
| 2026-04-27 08:40 | -17.68223 | 146.40501 | 26216 ft | 444 kts | 154° |
| 2026-04-27 08:40 | -17.70928 | 146.42085 | 26546 ft | 447 kts | 154° |
| 2026-04-27 08:41 | -17.73647 | 146.43679 | 26912 ft | 449 kts | 154° |
| 2026-04-27 08:41 | -17.76379 | 146.45282 | 27254 ft | 451 kts | 154° |
| 2026-04-27 08:41 | -17.79122 | 146.46890 | 27587 ft | 454 kts | 154° |
| 2026-04-27 08:41 | -17.81887 | 146.48513 | 27978 ft | 456 kts | 154° |
| 2026-04-27 08:42 | -17.84659 | 146.50140 | 28347 ft | 458 kts | 153° |
| 2026-04-27 08:42 | -17.87447 | 146.51778 | 28702 ft | 460 kts | 153° |
| 2026-04-27 08:42 | -17.90251 | 146.53426 | 29024 ft | 464 kts | 154° |
| 2026-04-27 08:42 | -17.93072 | 146.55084 | 29354 ft | 466 kts | 154° |
| 2026-04-27 08:43 | -17.95909 | 146.56751 | 29679 ft | 468 kts | 154° |
| 2026-04-27 08:43 | -17.98759 | 146.58427 | 30014 ft | 470 kts | 154° |
| 2026-04-27 08:43 | -18.01621 | 146.60110 | 30282 ft | 473 kts | 154° |
| 2026-04-27 08:43 | -18.04461 | 146.61782 | 30538 ft | 476 kts | 154° |
| 2026-04-27 08:44 | -18.07358 | 146.63487 | 30803 ft | 478 kts | 154° |
| 2026-04-27 08:44 | -18.10263 | 146.65198 | 31071 ft | 480 kts | 154° |
| 2026-04-27 08:44 | -18.13183 | 146.66920 | 31394 ft | 481 kts | 154° |
| 2026-04-27 08:44 | -18.16102 | 146.68641 | 31736 ft | 481 kts | 154° |
| 2026-04-27 08:45 | -18.19023 | 146.70363 | 32075 ft | 481 kts | 154° |
| 2026-04-27 08:45 | -18.21946 | 146.72088 | 32405 ft | 482 kts | 154° |
| 2026-04-27 08:45 | -18.24869 | 146.73813 | 32731 ft | 482 kts | 154° |
| 2026-04-27 08:45 | -18.27791 | 146.75538 | 33048 ft | 482 kts | 154° |
| 2026-04-27 08:46 | -18.30714 | 146.77264 | 33365 ft | 482 kts | 154° |
| 2026-04-27 08:46 | -18.33637 | 146.78991 | 33668 ft | 482 kts | 154° |
| 2026-04-27 08:46 | -18.36523 | 146.80696 | 33958 ft | 482 kts | 154° |
| 2026-04-27 08:46 | -18.39450 | 146.82415 | 34202 ft | 483 kts | 154° |
| 2026-04-27 08:47 | -18.42392 | 146.84138 | 34403 ft | 484 kts | 154° |
| 2026-04-27 08:47 | -18.45343 | 146.85866 | 34550 ft | 486 kts | 154° |
| 2026-04-27 08:47 | -18.48300 | 146.87599 | 34748 ft | 488 kts | 155° |
| 2026-04-27 08:47 | -18.51269 | 146.89341 | 34933 ft | 489 kts | 155° |
| 2026-04-27 08:48 | -18.54230 | 146.91080 | 35302 ft | 486 kts | 154° |
| 2026-04-27 08:48 | -18.57180 | 146.92814 | 35543 ft | 486 kts | 155° |
| 2026-04-27 08:48 | -18.60135 | 146.94551 | 35719 ft | 487 kts | 155° |
| 2026-04-27 08:48 | -18.63093 | 146.96290 | 35907 ft | 487 kts | 155° |
| 2026-04-27 08:49 | -18.66059 | 146.98034 | 36087 ft | 488 kts | 155° |
| 2026-04-27 08:49 | -18.68020 | 146.99188 | 36204 ft | 489 kts | 155° |
| 2026-04-27 08:49 | -18.71956 | 147.01505 | 36450 ft | 489 kts | 155° |
| 2026-04-27 08:49 | -18.74966 | 147.03278 | 36620 ft | 490 kts | 155° |
| 2026-04-27 08:50 | -18.76939 | 147.04440 | 36729 ft | 490 kts | 155° |
| 2026-04-27 08:50 | -18.80881 | 147.06764 | 36948 ft | 491 kts | 155° |
| 2026-04-27 08:50 | -18.83868 | 147.08525 | 37105 ft | 491 kts | 155° |
| 2026-04-27 08:50 | -18.86848 | 147.10282 | 37377 ft | 488 kts | 155° |
| 2026-04-27 08:51 | -18.88842 | 147.11460 | 37698 ft | 484 kts | 155° |
| 2026-04-27 08:51 | -18.92729 | 147.13756 | 37955 ft | 484 kts | 155° |
| 2026-04-27 08:51 | -18.95668 | 147.15491 | 38091 ft | 484 kts | 155° |
| 2026-04-27 08:51 | -18.97618 | 147.16643 | 38172 ft | 484 kts | 155° |
| 2026-04-27 08:52 | -19.00555 | 147.18378 | 38324 ft | 484 kts | 155° |
| 2026-04-27 08:52 | -19.03498 | 147.20117 | 38450 ft | 484 kts | 155° |
| 2026-04-27 08:52 | -19.06438 | 147.21856 | 38588 ft | 484 kts | 155° |
| 2026-04-27 08:52 | -19.09381 | 147.23597 | 38706 ft | 485 kts | 155° |
| 2026-04-27 08:53 | -19.12321 | 147.25338 | 38808 ft | 485 kts | 155° |
| 2026-04-27 08:53 | -19.15266 | 147.27082 | 38902 ft | 485 kts | 155° |
| 2026-04-27 08:53 | -19.21123 | 147.30551 | 39003 ft | 474 kts | 155° |
| 2026-04-27 08:54 | -19.26787 | 147.33910 | 39004 ft | 471 kts | 155° |
| 2026-04-27 08:54 | -19.32532 | 147.37316 | 39004 ft | 474 kts | 155° |
| 2026-04-27 08:55 | -19.38287 | 147.40733 | 39004 ft | 475 kts | 155° |
| 2026-04-27 08:55 | -19.44053 | 147.44162 | 39005 ft | 475 kts | 155° |
| 2026-04-27 08:56 | -19.49812 | 147.47588 | 39003 ft | 475 kts | 155° |
| 2026-04-27 08:56 | -19.55530 | 147.50993 | 39007 ft | 467 kts | 154° |
| 2026-04-27 08:57 | -19.64024 | 147.56053 | 39010 ft | 470 kts | 154° |
| 2026-04-27 08:58 | -19.69721 | 147.59451 | 39015 ft | 469 kts | 154° |
| 2026-04-27 08:58 | -19.75415 | 147.62851 | 39018 ft | 470 kts | 154° |
| 2026-04-27 08:59 | -19.81111 | 147.66252 | 39007 ft | 470 kts | 154° |
| 2026-04-27 08:59 | -19.86818 | 147.69661 | 39020 ft | 470 kts | 154° |
| 2026-04-27 09:00 | -19.92517 | 147.73069 | 39023 ft | 470 kts | 154° |
| 2026-04-27 09:00 | -19.98183 | 147.76461 | 39025 ft | 470 kts | 154° |
| 2026-04-27 09:01 | -20.03883 | 147.79876 | 39026 ft | 471 kts | 154° |
| 2026-04-27 09:01 | -20.09585 | 147.83294 | 39036 ft | 471 kts | 154° |
| 2026-04-27 09:02 | -20.15290 | 147.86718 | 39049 ft | 471 kts | 154° |
| 2026-04-27 09:02 | -20.20991 | 147.90142 | 39029 ft | 470 kts | 154° |
| 2026-04-27 09:03 | -20.26684 | 147.93564 | 39033 ft | 471 kts | 154° |
| 2026-04-27 09:03 | -20.32368 | 147.96983 | 39031 ft | 472 kts | 154° |
| 2026-04-27 09:04 | -20.38082 | 148.00425 | 39037 ft | 472 kts | 154° |
| 2026-04-27 09:04 | -20.43796 | 148.03868 | 39044 ft | 472 kts | 154° |
| 2026-04-27 09:05 | -20.49517 | 148.07320 | 39052 ft | 473 kts | 154° |
| 2026-04-27 09:05 | -20.55240 | 148.10775 | 39054 ft | 472 kts | 154° |
| 2026-04-27 09:06 | -20.60965 | 148.14234 | 39056 ft | 473 kts | 154° |
| 2026-04-27 09:06 | -20.66651 | 148.17673 | 39056 ft | 473 kts | 154° |
| 2026-04-27 09:07 | -20.72380 | 148.21142 | 39048 ft | 474 kts | 154° |
| 2026-04-27 09:07 | -20.78112 | 148.24615 | 39056 ft | 474 kts | 154° |
| 2026-04-27 09:08 | -20.83852 | 148.28096 | 39066 ft | 474 kts | 155° |
| 2026-04-27 09:08 | -20.89554 | 148.31557 | 39067 ft | 475 kts | 155° |
| 2026-04-27 09:09 | -20.95297 | 148.35046 | 39069 ft | 475 kts | 155° |
| 2026-04-27 09:09 | -21.01041 | 148.38539 | 39080 ft | 475 kts | 155° |
| 2026-04-27 09:10 | -21.06775 | 148.42027 | 39076 ft | 474 kts | 155° |
| 2026-04-27 09:10 | -21.12503 | 148.45513 | 39104 ft | 473 kts | 155° |
| 2026-04-27 09:11 | -21.18186 | 148.48981 | 39082 ft | 474 kts | 155° |
| 2026-04-27 09:11 | -21.23943 | 148.52495 | 39079 ft | 477 kts | 155° |
| 2026-04-27 09:12 | -21.29697 | 148.56010 | 39080 ft | 476 kts | 155° |
| 2026-04-27 09:12 | -21.35459 | 148.59532 | 39081 ft | 476 kts | 155° |
| 2026-04-27 09:13 | -21.41216 | 148.63054 | 39079 ft | 476 kts | 155° |
| 2026-04-27 09:13 | -21.46971 | 148.66578 | 39086 ft | 476 kts | 155° |
| 2026-04-27 09:14 | -21.52690 | 148.70084 | 39080 ft | 477 kts | 155° |
| 2026-04-27 09:14 | -21.58442 | 148.73611 | 39088 ft | 475 kts | 155° |
| 2026-04-27 09:15 | -21.64191 | 148.77140 | 39082 ft | 478 kts | 155° |
| 2026-04-27 09:15 | -21.69974 | 148.80696 | 39082 ft | 479 kts | 155° |
| 2026-04-27 09:16 | -21.75751 | 148.84252 | 39076 ft | 478 kts | 155° |
| 2026-04-27 09:16 | -21.81534 | 148.87813 | 39080 ft | 479 kts | 156° |
| 2026-04-27 09:17 | -21.87280 | 148.91353 | 39086 ft | 479 kts | 156° |
| 2026-04-27 09:17 | -21.93002 | 148.94884 | 39083 ft | 479 kts | 156° |
| 2026-04-27 09:18 | -21.98779 | 148.98452 | 39078 ft | 478 kts | 156° |
| 2026-04-27 09:18 | -22.04546 | 149.02017 | 39080 ft | 478 kts | 156° |
| 2026-04-27 09:19 | -22.10316 | 149.05588 | 39093 ft | 479 kts | 156° |
| 2026-04-27 09:19 | -22.16084 | 149.09158 | 39087 ft | 483 kts | 156° |
| 2026-04-27 09:20 | -22.21901 | 149.12765 | 39085 ft | 482 kts | 156° |
| 2026-04-27 09:20 | -22.27708 | 149.16369 | 39091 ft | 482 kts | 156° |
| 2026-04-27 09:21 | -22.33520 | 149.19978 | 39086 ft | 482 kts | 156° |
| 2026-04-27 09:21 | -22.39332 | 149.23591 | 39084 ft | 482 kts | 156° |
| 2026-04-27 09:22 | -22.45145 | 149.27209 | 39104 ft | 482 kts | 157° |
| 2026-04-27 09:22 | -22.50908 | 149.30799 | 39090 ft | 481 kts | 157° |
| 2026-04-27 09:23 | -22.56708 | 149.34414 | 39091 ft | 482 kts | 157° |
| 2026-04-27 09:23 | -22.62506 | 149.38033 | 39092 ft | 481 kts | 157° |
| 2026-04-27 09:24 | -22.68308 | 149.41657 | 39090 ft | 481 kts | 156° |
| 2026-04-27 09:24 | -22.74104 | 149.45282 | 39141 ft | 481 kts | 157° |
| 2026-04-27 09:25 | -22.79844 | 149.48881 | 39089 ft | 479 kts | 157° |
| 2026-04-27 09:25 | -22.85629 | 149.52499 | 39095 ft | 480 kts | 157° |
| 2026-04-27 09:26 | -22.91410 | 149.56124 | 39098 ft | 480 kts | 157° |
| 2026-04-27 09:26 | -22.97191 | 149.59752 | 39092 ft | 480 kts | 157° |
| 2026-04-27 09:27 | -23.02996 | 149.63395 | 39097 ft | 485 kts | 157° |
| 2026-04-27 09:27 | -23.08833 | 149.67075 | 39102 ft | 483 kts | 157° |
| 2026-04-27 09:28 | -23.14579 | 149.70713 | 39100 ft | 482 kts | 157° |
| 2026-04-27 09:28 | -23.20384 | 149.74385 | 39101 ft | 483 kts | 157° |
| 2026-04-27 09:29 | -23.26181 | 149.78056 | 39107 ft | 482 kts | 157° |
| 2026-04-27 09:29 | -23.31982 | 149.81732 | 39102 ft | 483 kts | 157° |
| 2026-04-27 09:30 | -23.37782 | 149.85412 | 39102 ft | 482 kts | 157° |
| 2026-04-27 09:30 | -23.43587 | 149.89097 | 39124 ft | 483 kts | 157° |